createdAt,value
2019-03-06T00:04:07.664Z,1.16
2019-03-06T00:09:07.149Z,1.24
2019-03-06T00:14:07.304Z,1.18
2019-03-06T00:19:07.029Z,1.02
2019-03-06T00:24:07.234Z,0.79
2019-03-06T00:29:07.984Z,0.67
2019-03-06T00:34:07.221Z,0.48
2019-03-06T00:39:07.671Z,0.39
2019-03-06T00:44:06.891Z,0.34
2019-03-06T00:49:06.908Z,0.22
2019-03-06T00:54:07.128Z,0.1
2019-03-06T00:59:07.349Z,0.15
2019-03-06T01:04:07.316Z,-0.14
2019-03-06T01:09:07.159Z,-0.35
2019-03-06T01:13:08.186Z,-0.28
2019-03-06T01:18:07.315Z,-0.13
2019-03-06T01:23:07.541Z,-0.03
2019-03-06T01:28:06.812Z,-0.3
2019-03-06T01:33:07.483Z,-0.29
2019-03-06T01:38:06.750Z,-0.47
2019-03-06T01:43:07.337Z,-0.3
2019-03-06T01:48:07.110Z,-0.42
2019-03-06T01:53:07.408Z,-0.23
2019-03-06T01:58:07.735Z,-0.25
2019-03-06T02:03:09.997Z,-0.06
2019-03-06T02:07:11.511Z,0.23
2019-03-06T02:08:07.423Z,0.23
2019-03-06T02:12:07.814Z,0.35
2019-03-06T02:17:07.001Z,0.15
2019-03-06T02:22:07.218Z,0.14
2019-03-06T02:27:07.388Z,0.25
2019-03-06T02:32:07.747Z,0.36
2019-03-06T02:37:06.935Z,0.58
2019-03-06T02:42:07.649Z,0.59
2019-03-06T02:47:07.164Z,0.64
2019-03-06T02:52:07.525Z,0.57
2019-03-06T02:56:07.393Z,0.29
2019-03-06T03:01:07.333Z,0.13
2019-03-06T03:06:07.627Z,0.24
2019-03-06T03:11:07.194Z,0.24
2019-03-06T03:16:07.732Z,0.18
2019-03-06T03:21:06.938Z,0.15
2019-03-06T03:26:07.139Z,0.13
2019-03-06T03:30:08.616Z,0.39
2019-03-06T03:31:06.842Z,0.39
2019-03-06T03:35:06.880Z,0.14
2019-03-06T03:41:06.703Z,0.04
2019-03-06T03:45:08.287Z,0.09
2019-03-06T03:50:06.300Z,0.02
2019-03-06T03:55:06.844Z,-0.01
2019-03-06T04:00:08.959Z,0.13
2019-03-06T04:05:07.376Z,0.1
2019-03-06T04:10:07.449Z,-0.06
2019-03-06T04:15:09.370Z,0.05
2019-03-06T04:20:06.641Z,0.22
2019-03-06T04:24:07.191Z,0.45
2019-03-06T04:29:06.164Z,0.5
2019-03-06T04:34:06.478Z,0.49
2019-03-06T04:39:06.787Z,0.46
2019-03-06T04:44:07.241Z,0.44
2019-03-06T04:49:06.882Z,0.46
2019-03-06T04:54:07.257Z,0.34
2019-03-06T04:59:06.164Z,0.03
2019-03-06T05:04:06.817Z,-0.09
2019-03-06T05:09:07.387Z,0.25
2019-03-06T05:14:07.279Z,0.12
2019-03-06T05:19:06.905Z,0.09
2019-03-06T05:24:06.861Z,0.17
2019-03-06T05:29:07.592Z,0.17
2019-03-06T05:34:06.787Z,0.07
2019-03-06T05:38:07.821Z,0.02
2019-03-06T05:44:06.955Z,-0.16
2019-03-06T05:48:06.514Z,0.15
2019-03-06T05:53:06.783Z,0.04
2019-03-06T05:58:07.409Z,-0.1
2019-03-06T06:03:06.883Z,-0.03
2019-03-06T06:08:07.330Z,0.16
2019-03-06T06:13:07.918Z,0.23
2019-03-06T06:18:07.990Z,0.51
2019-03-06T06:23:07.275Z,0.52
2019-03-06T06:28:06.785Z,0.58
2019-03-06T06:33:06.605Z,0.72
2019-03-06T06:38:06.800Z,1.01
2019-03-06T06:43:08.487Z,1.82
2019-03-06T06:48:07.228Z,2.38
2019-03-06T06:53:07.502Z,2.73
2019-03-06T06:58:07.896Z,2.94
2019-03-06T07:03:08.707Z,3.45
2019-03-06T07:08:06.559Z,4.05
2019-03-06T07:13:07.213Z,4.27
2019-03-06T07:18:07.261Z,4.71
2019-03-06T07:23:06.430Z,5.4
2019-03-06T07:28:06.627Z,5.05
2019-03-06T07:33:06.596Z,5.34
2019-03-06T07:37:07.391Z,5.55
2019-03-06T07:42:07.908Z,5.68
2019-03-06T07:47:08.360Z,5.76
2019-03-06T07:52:07.180Z,5.48
2019-03-06T07:57:07.954Z,6.14
2019-03-06T08:02:07.805Z,6.53
2019-03-06T08:07:07.473Z,7.03
2019-03-06T08:12:06.906Z,8.3
2019-03-06T08:17:08.124Z,8.19
2019-03-06T08:22:07.586Z,8.86
2019-03-06T08:26:08.653Z,8.13
2019-03-06T08:31:07.033Z,9.1
2019-03-06T08:36:08.148Z,8.96
2019-03-06T08:41:08.297Z,8.87
2019-03-06T08:46:08.046Z,8.46
2019-03-06T08:51:07.828Z,8.72
2019-03-06T08:56:07.323Z,8.5
2019-03-06T09:01:07.266Z,8.96
2019-03-06T09:06:08.046Z,9.53
2019-03-06T09:11:06.902Z,10.21
2019-03-06T09:15:11.769Z,9.95
2019-03-06T09:16:07.641Z,9.95
2019-03-06T09:20:08.729Z,9.82
2019-03-06T09:25:07.449Z,9.86
2019-03-06T09:30:16.593Z,10.2
2019-03-06T09:35:09.236Z,9.81
2019-03-06T09:40:08.197Z,9.56
2019-03-06T09:45:08.573Z,10.1
2019-03-06T09:49:12.750Z,10.06
2019-03-06T09:54:08.061Z,10.72
2019-03-06T09:59:07.402Z,10.34
2019-03-06T10:04:06.566Z,10.37
2019-03-06T10:09:07.247Z,10.35
2019-03-06T10:14:06.485Z,10.36
2019-03-06T10:19:07.364Z,11.03
2019-03-06T10:24:07.223Z,10.83
2019-03-06T10:28:08.021Z,10.89
2019-03-06T10:33:07.610Z,11.36
2019-03-06T10:38:17.047Z,11.99
2019-03-06T10:43:08.082Z,11.2
2019-03-06T10:48:07.828Z,9.95
2019-03-06T10:53:07.285Z,10.5
2019-03-06T10:57:07.496Z,11.63
2019-03-06T11:02:07.657Z,11.45
2019-03-06T11:07:08.852Z,11.63
2019-03-06T11:12:08.580Z,12.3
2019-03-06T11:17:08.266Z,11.81
2019-03-06T11:22:07.175Z,11.69
2019-03-06T11:27:06.629Z,11.92
2019-03-06T11:32:06.751Z,11.6
2019-03-06T11:36:08.039Z,12.21
2019-03-06T11:41:07.662Z,12.25
2019-03-06T11:46:06.964Z,12.57
2019-03-06T11:47:07.466Z,12.57
2019-03-06T11:52:07.446Z,12.65
2019-03-06T11:57:07.363Z,12.01
2019-03-06T12:01:07.108Z,12.33
2019-03-06T12:07:07.345Z,13.03
2019-03-06T12:11:07.103Z,12.61
2019-03-06T12:16:06.812Z,12.62
2019-03-06T12:21:07.703Z,13.11
2019-03-06T12:26:07.340Z,12.87
2019-03-06T12:31:07.960Z,13.12
2019-03-06T12:36:07.801Z,13.1
2019-03-06T12:40:15.570Z,12.96
2019-03-06T12:45:08.518Z,13.25
2019-03-06T12:50:07.289Z,13.25
2019-03-06T12:55:07.703Z,13.49
2019-03-06T13:00:09.823Z,13.06
2019-03-06T13:05:06.820Z,13.16
2019-03-06T13:10:06.569Z,13.52
2019-03-06T13:14:06.999Z,13.15
2019-03-06T13:20:08.752Z,12.8
2019-03-06T13:25:09.188Z,13.82
2019-03-06T13:30:09.634Z,13.61
2019-03-06T13:35:07.237Z,12.84
2019-03-06T13:40:06.867Z,13.11
2019-03-06T13:45:07.956Z,12.61
2019-03-06T13:50:07.763Z,12.55
2019-03-06T13:54:07.007Z,12.5
2019-03-06T13:55:06.543Z,12.5
2019-03-06T13:59:07.536Z,12.45
2019-03-06T14:04:07.201Z,12.75
2019-03-06T14:09:07.253Z,12.92
2019-03-06T14:14:06.473Z,12.85
2019-03-06T14:19:06.377Z,12.86
2019-03-06T14:24:06.518Z,12.61
2019-03-06T14:29:07.683Z,12.63
2019-03-06T14:33:07.103Z,12.51
2019-03-06T14:38:07.035Z,12.44
2019-03-06T14:43:07.879Z,12.62
2019-03-06T14:48:06.876Z,12.61
2019-03-06T14:53:07.192Z,12.79
2019-03-06T14:58:06.178Z,13.12
2019-03-06T15:02:08.317Z,13.15
2019-03-06T15:07:06.731Z,12.77
2019-03-06T15:12:06.476Z,12.21
2019-03-06T15:17:07.884Z,11.89
2019-03-06T15:22:07.442Z,11.78
2019-03-06T15:27:06.953Z,11.68
2019-03-06T15:32:07.195Z,11.59
2019-03-06T15:37:07.901Z,11.68
2019-03-06T15:42:07.526Z,11.92
2019-03-06T15:47:07.445Z,12.1
2019-03-06T15:52:07.706Z,12.06
2019-03-06T15:56:06.960Z,11.84
2019-03-06T16:01:06.469Z,11.77
2019-03-06T16:06:06.794Z,11.67
2019-03-06T16:11:06.584Z,11.34
2019-03-06T16:16:06.242Z,11.14
2019-03-06T16:21:06.618Z,10.95
2019-03-06T16:26:07.212Z,10.8
2019-03-06T16:31:07.408Z,10.79
2019-03-06T16:36:07.200Z,10.75
2019-03-06T16:41:06.560Z,10.63
2019-03-06T16:45:08.404Z,10.24
2019-03-06T16:46:07.101Z,10.24
2019-03-06T16:50:16.438Z,10.19
2019-03-06T16:55:06.942Z,10.06
2019-03-06T17:00:07.807Z,10.13
2019-03-06T17:05:06.579Z,10.27
2019-03-06T17:10:06.628Z,10.21
2019-03-06T17:15:08.262Z,10.3
2019-03-06T17:19:07.033Z,10.24
2019-03-06T17:25:07.361Z,10.16
2019-03-06T17:29:06.619Z,10.16
2019-03-06T17:34:06.664Z,9.99
2019-03-06T17:39:07.591Z,9.76
2019-03-06T17:44:06.813Z,9.76
2019-03-06T17:49:06.641Z,9.79
2019-03-06T17:54:06.945Z,9.77
2019-03-06T17:59:06.840Z,9.78
2019-03-06T18:04:07.243Z,9.92
2019-03-06T18:09:06.887Z,9.91
2019-03-06T18:14:07.502Z,9.81
2019-03-06T18:19:07.170Z,9.82
2019-03-06T18:23:07.397Z,9.62
2019-03-06T18:28:06.689Z,9.46
2019-03-06T18:33:06.508Z,9.41
2019-03-06T18:38:06.476Z,9.36
2019-03-06T18:43:06.614Z,9.19
2019-03-06T18:48:06.779Z,9.03
2019-03-06T18:53:07.079Z,8.77
2019-03-06T18:57:07.722Z,8.48
2019-03-06T18:58:06.917Z,8.48
2019-03-06T19:02:07.402Z,8.48
2019-03-06T19:07:06.648Z,8.43
2019-03-06T19:12:07.297Z,8.47
2019-03-06T19:17:07.147Z,8.63
2019-03-06T19:22:07.467Z,8.74
2019-03-06T19:27:06.817Z,8.77
2019-03-06T19:32:07.131Z,8.85
2019-03-06T19:37:06.476Z,8.83
2019-03-06T19:42:07.103Z,8.75
2019-03-06T19:46:06.869Z,8.78
2019-03-06T19:51:07.119Z,8.79
2019-03-06T19:56:07.417Z,8.9
2019-03-06T20:01:06.874Z,8.91
2019-03-06T20:06:07.158Z,9.01
2019-03-06T20:11:06.852Z,9.03
2019-03-06T20:16:06.443Z,8.94
2019-03-06T20:21:06.834Z,8.98
2019-03-06T20:26:15.718Z,9.01
2019-03-06T20:30:08.664Z,8.77
2019-03-06T20:31:07.460Z,8.77
2019-03-06T20:35:07.202Z,8.78
2019-03-06T20:36:06.397Z,8.78
2019-03-06T20:40:07.232Z,8.52
2019-03-06T20:45:08.274Z,8.76
2019-03-06T20:50:07.219Z,8.82
2019-03-06T20:55:06.565Z,8.5
2019-03-06T21:00:08.962Z,7.99
2019-03-06T21:05:07.148Z,7.88
2019-03-06T21:09:07.981Z,7.9
2019-03-06T21:10:07.345Z,7.9
2019-03-06T21:14:06.553Z,7.91
2019-03-06T21:19:06.673Z,8.06
2019-03-06T21:24:06.968Z,8.21
2019-03-06T21:29:07.256Z,8.31
2019-03-06T21:34:09.097Z,8.19
2019-03-06T21:39:07.932Z,8
2019-03-06T21:44:06.638Z,7.91
2019-03-06T21:49:06.573Z,7.96
2019-03-06T21:54:07.124Z,8.06
2019-03-06T21:59:07.166Z,8.27
2019-03-06T22:03:07.627Z,8.38
2019-03-06T22:09:07.408Z,8.47
2019-03-06T22:13:07.748Z,8.48
2019-03-06T22:18:06.684Z,8.72
2019-03-06T22:23:06.900Z,8.82
2019-03-06T22:28:07.232Z,8.8
2019-03-06T22:33:07.198Z,8.78
2019-03-06T22:38:06.927Z,8.9
2019-03-06T22:43:06.651Z,8.95
2019-03-06T22:48:07.523Z,9
2019-03-06T22:52:07.349Z,9.07
2019-03-06T22:53:06.830Z,9.07
2019-03-06T22:57:06.637Z,9.08
2019-03-06T23:02:06.469Z,9.14
2019-03-06T23:07:06.693Z,9.11
2019-03-06T23:12:06.115Z,9.04
2019-03-06T23:17:06.519Z,8.95
2019-03-06T23:23:07.160Z,8.75
2019-03-06T23:27:07.481Z,8.6
2019-03-06T23:32:06.807Z,8.56
2019-03-06T23:37:06.989Z,8.76
2019-03-06T23:42:06.645Z,8.78
2019-03-06T23:47:06.586Z,8.8
2019-03-06T23:52:06.901Z,8.91
2019-03-06T23:57:06.173Z,8.92
